Time;durP1;ratioP1;P1;durP2;ratioP2;P2;SDS_P1;SDS_P2;PMS_P1;PMS_P2;Temp;Humidity;BMP_temperature;BMP_pressure;BME280_temperature;BME280_humidity;BME280_pressure;Samples;Min_cycle;Max_cycle;Signal;HPM_P1;HPM_P2
2021/08/18 00:01:53;;;;;;;10.73;6.18;;;;;;;;;;5053390;28;20484;-74
2021/08/18 00:04:19;;;;;;;6.75;5.95;;;;;;;;;;5053082;28;20554;-76
2021/08/18 00:06:45;;;;;;;7.97;5.85;;;;;;;;;;5052453;28;20108;-75
2021/08/18 00:09:12;;;;;;;7.90;5.30;;;;;;;;;;5053214;28;20079;-76
2021/08/18 00:11:38;;;;;;;9.68;5.25;;;;;;;;;;5053264;28;20499;-76
2021/08/18 00:14:05;;;;;;;9.02;5.68;;;;;;;;;;5053128;28;20108;-75
2021/08/18 00:16:31;;;;;;;15.88;6.75;;;;;;;;;;5052914;28;20473;-75
2021/08/18 00:18:57;;;;;;;10.52;5.32;;;;;;;;;;5053090;28;20032;-76
2021/08/18 00:21:24;;;;;;;7.72;5.45;;;;;;;;;;5053010;28;20029;-76
2021/08/18 00:23:50;;;;;;;10.20;5.68;;;;;;;;;;5051814;28;20078;-75
2021/08/18 00:26:16;;;;;;;8.27;5.40;;;;;;;;;;5052942;28;20037;-75
2021/08/18 00:28:43;;;;;;;8.23;5.55;;;;;;;;;;5052958;28;20107;-75
2021/08/18 00:31:14;;;;;;;14.57;11.88;;;;;;;;;;5052924;28;20035;-75
2021/08/18 00:33:40;;;;;;;8.23;5.53;;;;;;;;;;5053152;28;20033;-76
2021/08/18 00:36:06;;;;;;;8.23;5.38;;;;;;;;;;5052694;28;20109;-76
2021/08/18 00:38:32;;;;;;;8.45;5.30;;;;;;;;;;5052445;28;20032;-76
2021/08/18 00:40:59;;;;;;;15.38;5.43;;;;;;;;;;5051201;28;20132;-74
2021/08/18 00:43:25;;;;;;;10.40;5.18;;;;;;;;;;5052246;28;20025;-76
2021/08/18 00:45:51;;;;;;;10.75;5.13;;;;;;;;;;5052642;28;20029;-76
2021/08/18 00:48:18;;;;;;;9.85;5.15;;;;;;;;;;5052224;28;20044;-75
2021/08/18 00:50:44;;;;;;;10.07;5.25;;;;;;;;;;5052551;28;20033;-76
2021/08/18 00:53:10;;;;;;;7.05;4.53;;;;;;;;;;5052403;28;20056;-75
2021/08/18 00:55:37;;;;;;;7.40;4.75;;;;;;;;;;5052284;28;20071;-75
2021/08/18 00:58:03;;;;;;;8.25;4.32;;;;;;;;;;5052273;28;20127;-75
2021/08/18 01:00:30;;;;;;;11.57;5.32;;;;;;;;;;5052310;28;20029;-76
2021/08/18 01:02:57;;;;;;;8.43;4.97;;;;;;;;;;5052316;28;20048;-75
2021/08/18 01:05:26;;;;;;;9.15;5.22;;;;;;;;;;5052126;28;20025;-76
2021/08/18 01:07:53;;;;;;;10.10;5.00;;;;;;;;;;5052277;28;20043;-74
2021/08/18 01:10:21;;;;;;;7.03;4.43;;;;;;;;;;5051968;28;20025;-76
2021/08/18 01:12:47;;;;;;;6.78;4.82;;;;;;;;;;5052316;28;20365;-76
2021/08/18 01:15:14;;;;;;;9.68;5.10;;;;;;;;;;5052228;28;20051;-76
2021/08/18 01:17:42;;;;;;;6.47;4.75;;;;;;;;;;5051974;28;20035;-76
2021/08/18 01:20:09;;;;;;;10.07;4.88;;;;;;;;;;5051941;28;20110;-76
2021/08/18 01:22:35;;;;;;;6.65;4.53;;;;;;;;;;5051887;28;20029;-77
2021/08/18 01:25:02;;;;;;;7.00;4.45;;;;;;;;;;5052065;28;20021;-75
2021/08/18 01:27:30;;;;;;;5.70;4.70;;;;;;;;;;5051841;28;20028;-76
2021/08/18 01:29:56;;;;;;;7.72;4.88;;;;;;;;;;5052062;28;20021;-75
2021/08/18 01:32:22;;;;;;;9.48;5.25;;;;;;;;;;5051871;28;20484;-75
2021/08/18 01:34:48;;;;;;;8.48;4.28;;;;;;;;;;5052051;28;20029;-76
2021/08/18 01:37:14;;;;;;;11.25;4.85;;;;;;;;;;5051838;28;20033;-76
2021/08/18 01:39:41;;;;;;;8.27;4.18;;;;;;;;;;5051679;28;20465;-76
2021/08/18 01:42:07;;;;;;;8.55;4.60;;;;;;;;;;5051790;28;20025;-76
2021/08/18 01:44:34;;;;;;;6.78;5.00;;;;;;;;;;5050408;28;20031;-75
2021/08/18 01:47:00;;;;;;;7.70;5.10;;;;;;;;;;5052097;28;20111;-74
2021/08/18 01:49:30;;;;;;;10.23;5.22;;;;;;;;;;5051565;28;20045;-76
2021/08/18 01:51:57;;;;;;;9.77;5.13;;;;;;;;;;5051858;28;20021;-77
2021/08/18 01:54:23;;;;;;;10.07;5.72;;;;;;;;;;5051746;28;20044;-76
2021/08/18 01:56:49;;;;;;;7.75;4.70;;;;;;;;;;5051814;28;20033;-76
2021/08/18 01:59:15;;;;;;;6.30;4.50;;;;;;;;;;5051627;28;20025;-75
2021/08/18 02:01:42;;;;;;;6.38;5.28;;;;;;;;;;5051516;28;20025;-75
2021/08/18 02:04:08;;;;;;;11.95;6.40;;;;;;;;;;5051750;28;20055;-76
2021/08/18 02:06:35;;;;;;;8.52;4.95;;;;;;;;;;5051227;28;20035;-75
2021/08/18 02:09:02;;;;;;;11.15;5.03;;;;;;;;;;5051674;28;20056;-75
2021/08/18 02:11:28;;;;;;;8.55;4.72;;;;;;;;;;5051361;28;20033;-76
2021/08/18 02:13:54;;;;;;;6.05;4.72;;;;;;;;;;5051515;28;20542;-75
2021/08/18 02:16:20;;;;;;;6.20;4.95;;;;;;;;;;5051494;28;20029;-74
2021/08/18 02:18:46;;;;;;;10.48;5.35;;;;;;;;;;5051129;28;20376;-75
2021/08/18 02:21:12;;;;;;;7.65;5.10;;;;;;;;;;5051502;28;20032;-75
2021/08/18 02:23:38;;;;;;;8.90;4.47;;;;;;;;;;5051202;28;20423;-76
2021/08/18 02:26:04;;;;;;;6.63;5.10;;;;;;;;;;5050447;28;20087;-75
2021/08/18 02:28:30;;;;;;;11.43;5.63;;;;;;;;;;5051454;28;20029;-76
2021/08/18 02:30:56;;;;;;;10.85;5.93;;;;;;;;;;5053135;28;20472;-75
2021/08/18 02:33:25;;;;;;;9.82;5.65;;;;;;;;;;5055024;28;20021;-74
2021/08/18 02:35:52;;;;;;;7.18;4.93;;;;;;;;;;5054769;28;20033;-76
2021/08/18 02:38:18;;;;;;;8.02;4.63;;;;;;;;;;5055063;28;20079;-75
2021/08/18 02:40:44;;;;;;;8.02;5.43;;;;;;;;;;5054763;28;20029;-75
2021/08/18 02:43:10;;;;;;;7.45;5.10;;;;;;;;;;5055038;28;20025;-75
2021/08/18 02:45:36;;;;;;;8.80;4.78;;;;;;;;;;5054829;28;20028;-76
2021/08/18 02:48:02;;;;;;;8.80;5.43;;;;;;;;;;5054594;28;20053;-74
2021/08/18 02:50:30;;;;;;;9.73;5.38;;;;;;;;;;5054663;28;20094;-75
2021/08/18 02:52:56;;;;;;;9.43;5.00;;;;;;;;;;5053269;28;20037;-74
2021/08/18 02:55:22;;;;;;;6.07;4.53;;;;;;;;;;5054733;28;20028;-75
2021/08/18 02:57:48;;;;;;;7.78;5.35;;;;;;;;;;5054501;28;20112;-75
2021/08/18 03:00:15;;;;;;;7.70;5.22;;;;;;;;;;5054636;28;20029;-75
2021/08/18 03:02:41;;;;;;;10.23;5.20;;;;;;;;;;5054683;28;20101;-76
2021/08/18 03:05:08;;;;;;;7.47;5.10;;;;;;;;;;5054411;28;20048;-75
2021/08/18 03:07:34;;;;;;;7.10;4.97;;;;;;;;;;5054608;28;20040;-76
2021/08/18 03:10:00;;;;;;;7.70;4.65;;;;;;;;;;5054339;28;20028;-75
2021/08/18 03:12:26;;;;;;;8.40;4.90;;;;;;;;;;5054412;28;20075;-75
2021/08/18 03:14:52;;;;;;;9.25;5.40;;;;;;;;;;5054191;28;20063;-75
2021/08/18 03:17:18;;;;;;;8.73;7.82;;;;;;;;;;5054190;28;20033;-75
2021/08/18 03:19:44;;;;;;;11.30;5.00;;;;;;;;;;5054181;28;20029;-78
2021/08/18 03:22:10;;;;;;;7.68;4.38;;;;;;;;;;5054096;28;20021;-76
2021/08/18 03:24:37;;;;;;;8.05;4.90;;;;;;;;;;5054186;28;20028;-76
2021/08/18 03:27:03;;;;;;;7.97;5.13;;;;;;;;;;5053878;28;20028;-72
2021/08/18 03:29:29;;;;;;;8.95;5.07;;;;;;;;;;5054067;28;20057;-75
2021/08/18 03:31:55;;;;;;;6.00;5.13;;;;;;;;;;5053649;28;20033;-75
2021/08/18 03:34:21;;;;;;;9.57;5.38;;;;;;;;;;5054117;28;20035;-74
2021/08/18 03:36:47;;;;;;;6.53;5.38;;;;;;;;;;5053939;28;20044;-73
2021/08/18 03:39:13;;;;;;;6.97;4.45;;;;;;;;;;5053391;28;20029;-73
2021/08/18 03:41:40;;;;;;;8.25;4.80;;;;;;;;;;5052894;28;20032;-73
2021/08/18 03:44:06;;;;;;;9.55;5.13;;;;;;;;;;5053395;28;20075;-72
2021/08/18 03:46:32;;;;;;;7.15;4.32;;;;;;;;;;5053550;28;20060;-73
2021/08/18 03:48:58;;;;;;;6.38;4.20;;;;;;;;;;5053564;28;20111;-74
2021/08/18 03:51:24;;;;;;;7.03;4.90;;;;;;;;;;5053406;28;20021;-73
2021/08/18 03:53:50;;;;;;;8.32;5.00;;;;;;;;;;5052456;28;20043;-73
2021/08/18 03:56:17;;;;;;;6.93;5.03;;;;;;;;;;5053149;28;20155;-73
2021/08/18 03:58:44;;;;;;;8.45;4.95;;;;;;;;;;5053533;28;20064;-73
2021/08/18 04:01:10;;;;;;;6.40;4.60;;;;;;;;;;5053203;28;20051;-77
2021/08/18 04:03:36;;;;;;;7.30;5.43;;;;;;;;;;5053481;28;20032;-73
2021/08/18 04:06:02;;;;;;;8.15;4.95;;;;;;;;;;5053125;28;20416;-73
2021/08/18 04:08:29;;;;;;;7.20;4.90;;;;;;;;;;5053158;28;20032;-75
2021/08/18 04:10:55;;;;;;;9.15;5.20;;;;;;;;;;5053281;28;20472;-76
2021/08/18 04:13:21;;;;;;;5.93;4.72;;;;;;;;;;5053002;28;20074;-75
2021/08/18 04:15:47;;;;;;;8.27;4.22;;;;;;;;;;5053257;28;20029;-74
2021/08/18 04:18:13;;;;;;;7.75;4.43;;;;;;;;;;5052880;28;20037;-74
2021/08/18 04:20:39;;;;;;;10.50;5.30;;;;;;;;;;5053349;28;20029;-72
2021/08/18 04:23:05;;;;;;;7.25;4.22;;;;;;;;;;5052921;28;20114;-77
2021/08/18 04:25:32;;;;;;;9.50;5.35;;;;;;;;;;5053115;28;20028;-76
2021/08/18 04:27:58;;;;;;;10.93;5.07;;;;;;;;;;5053038;28;20025;-75
2021/08/18 04:30:24;;;;;;;6.53;4.78;;;;;;;;;;5052788;28;20108;-75
2021/08/18 04:32:51;;;;;;;8.90;5.28;;;;;;;;;;5053100;28;20029;-73
2021/08/18 04:35:17;;;;;;;8.68;6.90;;;;;;;;;;5052723;28;20109;-75
2021/08/18 04:37:44;;;;;;;8.80;5.88;;;;;;;;;;5052743;28;20079;-75
2021/08/18 04:40:11;;;;;;;9.35;5.00;;;;;;;;;;5052726;28;20033;-75
2021/08/18 04:42:38;;;;;;;9.73;5.03;;;;;;;;;;5052391;28;20064;-76
2021/08/18 04:45:05;;;;;;;7.65;4.97;;;;;;;;;;5052606;28;20033;-74
2021/08/18 04:47:32;;;;;;;9.07;6.32;;;;;;;;;;5052215;28;20476;-73
2021/08/18 04:49:58;;;;;;;9.55;5.60;;;;;;;;;;5051137;28;20029;-76
2021/08/18 04:52:24;;;;;;;8.30;4.93;;;;;;;;;;5052295;28;20028;-74
2021/08/18 04:54:50;;;;;;;6.72;5.15;;;;;;;;;;5052197;28;20029;-74
2021/08/18 04:57:17;;;;;;;7.63;5.53;;;;;;;;;;5050905;28;20507;-74
2021/08/18 04:59:43;;;;;;;6.85;4.70;;;;;;;;;;5052253;28;20388;-73
2021/08/18 05:02:09;;;;;;;7.32;5.07;;;;;;;;;;5049835;28;20033;-75
2021/08/18 05:04:35;;;;;;;7.25;5.93;;;;;;;;;;5051746;28;20498;-73
2021/08/18 05:07:01;;;;;;;10.40;5.45;;;;;;;;;;5052322;28;20036;-74
2021/08/18 05:09:27;;;;;;;7.15;5.18;;;;;;;;;;5051799;28;20361;-75
2021/08/18 05:11:54;;;;;;;8.73;5.05;;;;;;;;;;5051901;28;20484;-77
2021/08/18 05:14:22;;;;;;;7.63;4.78;;;;;;;;;;5052326;28;20427;-75
2021/08/18 05:16:48;;;;;;;7.88;5.05;;;;;;;;;;5052271;28;20048;-75
2021/08/18 05:19:15;;;;;;;8.20;6.07;;;;;;;;;;5050462;28;20396;-76
2021/08/18 05:21:41;;;;;;;10.23;5.68;;;;;;;;;;5052436;28;20067;-75
2021/08/18 05:24:07;;;;;;;7.05;5.20;;;;;;;;;;5051693;28;20036;-74
2021/08/18 05:26:34;;;;;;;9.95;5.68;;;;;;;;;;5051902;28;20024;-74
2021/08/18 05:29:00;;;;;;;10.90;5.20;;;;;;;;;;5051836;28;20035;-75
2021/08/18 05:31:26;;;;;;;7.82;5.18;;;;;;;;;;5051604;28;20021;-74
2021/08/18 05:33:52;;;;;;;14.98;6.65;;;;;;;;;;5051362;28;20036;-75
2021/08/18 05:36:18;;;;;;;7.45;5.25;;;;;;;;;;5051514;28;20029;-75
2021/08/18 05:38:45;;;;;;;10.52;5.80;;;;;;;;;;5052346;28;20032;-74
2021/08/18 05:41:11;;;;;;;7.25;5.30;;;;;;;;;;5051484;28;20037;-75
2021/08/18 05:43:38;;;;;;;10.40;5.32;;;;;;;;;;5052134;28;20025;-74
2021/08/18 05:46:04;;;;;;;7.93;5.03;;;;;;;;;;5051903;28;20448;-74
2021/08/18 05:48:31;;;;;;;10.32;5.70;;;;;;;;;;5051528;28;20110;-74
2021/08/18 05:50:57;;;;;;;6.25;5.22;;;;;;;;;;5051702;28;20087;-75
2021/08/18 05:53:23;;;;;;;6.47;4.93;;;;;;;;;;5051291;28;20032;-74
2021/08/18 05:55:49;;;;;;;7.47;5.88;;;;;;;;;;5051510;28;20104;-73
2021/08/18 05:58:16;;;;;;;8.02;5.05;;;;;;;;;;5051561;28;20059;-74
2021/08/18 06:00:42;;;;;;;7.82;5.22;;;;;;;;;;5051502;28;20029;-75
2021/08/18 06:03:08;;;;;;;9.80;6.07;;;;;;;;;;5050993;28;20052;-77
2021/08/18 06:05:36;;;;;;;8.57;5.72;;;;;;;;;;5052298;28;20071;-76
2021/08/18 06:08:03;;;;;;;8.20;6.15;;;;;;;;;;5054725;28;20425;-76
2021/08/18 06:10:29;;;;;;;10.75;5.90;;;;;;;;;;5054373;28;20063;-76
2021/08/18 06:12:55;;;;;;;11.80;5.68;;;;;;;;;;5055275;28;20464;-76
2021/08/18 06:15:21;;;;;;;9.35;6.20;;;;;;;;;;5054652;28;20025;-76
2021/08/18 06:17:47;;;;;;;8.10;6.22;;;;;;;;;;5054780;28;20033;-76
2021/08/18 06:20:14;;;;;;;7.45;6.13;;;;;;;;;;5028467;28;20083;-76
2021/08/18 06:22:40;;;;;;;8.38;6.15;;;;;;;;;;5054836;28;20079;-77
2021/08/18 06:25:09;;;;;;;6.97;6.10;;;;;;;;;;5054462;28;20383;-76
2021/08/18 06:27:35;;;;;;;8.23;5.95;;;;;;;;;;5052392;28;20087;-76
2021/08/18 06:30:01;;;;;;;6.07;5.20;;;;;;;;;;5054733;28;20029;-77
2021/08/18 06:32:28;;;;;;;7.82;6.00;;;;;;;;;;5054070;28;20106;-75
2021/08/18 06:34:54;;;;;;;10.55;6.07;;;;;;;;;;5051939;28;20029;-75
2021/08/18 06:37:21;;;;;;;7.55;6.07;;;;;;;;;;5054327;28;20494;-76
2021/08/18 06:39:47;;;;;;;8.00;5.80;;;;;;;;;;5054652;28;20031;-76
2021/08/18 06:42:13;;;;;;;9.98;7.20;;;;;;;;;;5054150;28;20029;-76
2021/08/18 06:44:39;;;;;;;9.55;6.65;;;;;;;;;;5054161;28;20029;-75
2021/08/18 06:47:06;;;;;;;13.32;8.93;;;;;;;;;;5053326;28;20124;-77
2021/08/18 06:49:32;;;;;;;7.93;6.10;;;;;;;;;;5053724;28;20049;-71
2021/08/18 06:51:58;;;;;;;9.57;6.80;;;;;;;;;;5054941;28;20028;-77
2021/08/18 06:54:25;;;;;;;17.27;13.10;;;;;;;;;;5054534;28;20021;-75
2021/08/18 06:56:51;;;;;;;9.25;6.97;;;;;;;;;;5054589;28;20033;-75
2021/08/18 06:59:17;;;;;;;10.48;6.90;;;;;;;;;;5054718;28;20484;-77
2021/08/18 07:01:43;;;;;;;9.93;7.47;;;;;;;;;;5054012;28;20112;-75
2021/08/18 07:04:10;;;;;;;9.68;6.25;;;;;;;;;;5054194;28;20033;-78
2021/08/18 07:06:36;;;;;;;11.07;6.15;;;;;;;;;;5053799;28;20506;-76
2021/08/18 07:09:02;;;;;;;11.18;9.13;;;;;;;;;;5054246;28;20032;-77
2021/08/18 07:11:28;;;;;;;10.50;7.10;;;;;;;;;;5053767;28;20096;-76
2021/08/18 07:14:01;;;;;;;9.75;6.07;;;;;;;;;;5054747;28;20078;-75
2021/08/18 07:16:28;;;;;;;9.88;6.18;;;;;;;;;;5053798;28;20021;-74
2021/08/18 07:18:57;;;;;;;11.70;6.82;;;;;;;;;;5054035;28;20041;-75
2021/08/18 07:21:23;;;;;;;7.55;6.18;;;;;;;;;;5053885;28;20029;-76
2021/08/18 07:23:50;;;;;;;10.60;7.88;;;;;;;;;;5054291;28;20028;-75
2021/08/18 07:26:17;;;;;;;10.50;7.55;;;;;;;;;;5053698;28;20468;-74
2021/08/18 07:28:43;;;;;;;10.18;7.25;;;;;;;;;;5054161;28;20039;-76
2021/08/18 07:31:10;;;;;;;11.15;6.80;;;;;;;;;;5054486;28;20037;-75
2021/08/18 07:33:36;;;;;;;8.20;6.68;;;;;;;;;;5053420;28;20438;-75
2021/08/18 07:36:02;;;;;;;9.90;6.55;;;;;;;;;;5053767;28;20033;-75
2021/08/18 07:38:29;;;;;;;11.65;8.45;;;;;;;;;;5053766;28;20033;-77
2021/08/18 07:40:56;;;;;;;11.15;7.15;;;;;;;;;;5053616;28;20538;-76
2021/08/18 07:43:22;;;;;;;9.02;7.47;;;;;;;;;;5053923;28;20057;-74
2021/08/18 07:45:48;;;;;;;10.80;7.60;;;;;;;;;;5053744;28;20032;-75
2021/08/18 07:48:14;;;;;;;10.52;7.68;;;;;;;;;;5053071;28;20420;-75
2021/08/18 07:50:40;;;;;;;10.65;7.32;;;;;;;;;;5053419;28;20112;-76
2021/08/18 07:53:06;;;;;;;10.68;8.13;;;;;;;;;;5054019;28;20439;-76
2021/08/18 07:55:32;;;;;;;11.63;7.55;;;;;;;;;;5053343;28;20543;-75
2021/08/18 07:57:59;;;;;;;11.90;8.07;;;;;;;;;;5053550;28;20044;-75
2021/08/18 08:00:25;;;;;;;9.50;7.63;;;;;;;;;;5053388;28;20029;-75
2021/08/18 08:02:51;;;;;;;10.07;7.70;;;;;;;;;;5052881;28;20044;-74
2021/08/18 08:05:17;;;;;;;85.75;34.20;;;;;;;;;;5052975;28;20066;-76
2021/08/18 08:07:44;;;;;;;11.48;9.02;;;;;;;;;;5053106;28;20073;-75
2021/08/18 08:10:11;;;;;;;14.48;8.30;;;;;;;;;;5052986;28;20021;-75
2021/08/18 08:12:38;;;;;;;9.77;8.07;;;;;;;;;;5053172;28;20021;-75
2021/08/18 08:15:05;;;;;;;12.13;8.93;;;;;;;;;;5052559;28;20033;-75
2021/08/18 08:17:31;;;;;;;12.95;8.75;;;;;;;;;;5052646;28;20126;-76
2021/08/18 08:19:58;;;;;;;12.93;9.80;;;;;;;;;;5051939;28;20029;-75
2021/08/18 08:22:24;;;;;;;13.02;9.80;;;;;;;;;;5053068;28;20117;-75
2021/08/18 08:24:50;;;;;;;11.27;8.68;;;;;;;;;;5052662;28;20028;-76
2021/08/18 08:27:16;;;;;;;15.07;9.45;;;;;;;;;;5053088;28;20100;-74
2021/08/18 08:29:42;;;;;;;13.43;9.85;;;;;;;;;;5052586;28;20040;-76
2021/08/18 08:32:09;;;;;;;15.65;10.30;;;;;;;;;;5052681;28;20454;-78
2021/08/18 08:34:35;;;;;;;12.77;9.32;;;;;;;;;;5052921;28;20410;-75
2021/08/18 08:37:02;;;;;;;11.10;9.38;;;;;;;;;;5052706;28;20037;-76
2021/08/18 08:39:28;;;;;;;13.25;9.95;;;;;;;;;;5052498;28;20032;-74
2021/08/18 08:41:54;;;;;;;10.90;9.70;;;;;;;;;;5052490;28;20068;-73
2021/08/18 08:44:21;;;;;;;12.43;10.20;;;;;;;;;;5052857;28;20380;-74
2021/08/18 08:46:52;;;;;;;16.50;11.32;;;;;;;;;;5052409;28;20021;-73
2021/08/18 08:49:19;;;;;;;14.95;11.25;;;;;;;;;;5052839;28;20057;-74
2021/08/18 08:51:45;;;;;;;15.15;10.90;;;;;;;;;;5052483;28;20472;-73
2021/08/18 08:54:12;;;;;;;11.55;10.13;;;;;;;;;;5051994;28;20029;-74
2021/08/18 08:56:38;;;;;;;13.52;10.65;;;;;;;;;;5052633;28;20041;-74
2021/08/18 08:59:04;;;;;;;14.73;11.98;;;;;;;;;;5052514;28;20039;-73
2021/08/18 09:01:49;;;;;;;12.27;10.18;;;;;;;;;;5052002;28;20114;-74
2021/08/18 09:04:26;;;;;;;11.98;10.68;;;;;;;;;;5052312;28;20499;-73
2021/08/18 09:07:03;;;;;;;10.77;9.50;;;;;;;;;;5052243;28;20471;-76
2021/08/18 09:09:29;;;;;;;10.80;9.45;;;;;;;;;;5051743;28;20025;-73
2021/08/18 09:12:02;;;;;;;11.57;9.93;;;;;;;;;;5052370;28;20057;-73
2021/08/18 09:14:29;;;;;;;12.80;10.43;;;;;;;;;;5052380;28;20025;-73
2021/08/18 09:16:55;;;;;;;12.10;10.35;;;;;;;;;;5051527;28;20032;-76
2021/08/18 09:19:27;;;;;;;13.75;10.18;;;;;;;;;;5052148;28;20068;-74
2021/08/18 09:21:53;;;;;;;10.32;9.05;;;;;;;;;;5051934;28;20077;-73
2021/08/18 09:24:20;;;;;;;12.05;9.90;;;;;;;;;;5051417;28;20029;-74
2021/08/18 09:26:48;;;;;;;12.55;9.82;;;;;;;;;;5050680;28;20047;-75
2021/08/18 09:29:29;;;;;;;13.20;10.25;;;;;;;;;;5052250;28;20025;-74
2021/08/18 09:31:56;;;;;;;12.65;10.32;;;;;;;;;;5051836;28;20052;-77
2021/08/18 09:34:22;;;;;;;11.48;10.13;;;;;;;;;;5043009;28;20033;-74
2021/08/18 09:36:48;;;;;;;16.30;11.60;;;;;;;;;;5031885;28;20025;-74
2021/08/18 09:39:21;;;;;;;12.73;10.98;;;;;;;;;;5032408;28;20068;-75
2021/08/18 09:41:47;;;;;;;13.02;10.18;;;;;;;;;;5036033;28;20025;-74
2021/08/18 09:44:14;;;;;;;12.60;10.32;;;;;;;;;;5035868;28;20484;-74
2021/08/18 09:46:40;;;;;;;12.60;10.18;;;;;;;;;;5034645;28;20052;-75
2021/08/18 09:49:10;;;;;;;13.30;10.43;;;;;;;;;;5035633;28;20459;-72
2021/08/18 09:51:36;;;;;;;12.73;9.18;;;;;;;;;;5035955;28;20108;-76
2021/08/18 09:54:12;;;;;;;13.27;9.90;;;;;;;;;;5035859;28;20038;-74
2021/08/18 09:56:46;;;;;;;12.57;10.63;;;;;;;;;;5036166;28;20033;-74
2021/08/18 09:59:12;;;;;;;;;;;;;;;;;;5036479;28;20033;-74
2021/08/18 10:01:39;;;;;;;12.32;10.65;;;;;;;;;;5035514;28;20455;-74
2021/08/18 10:04:05;;;;;;;14.23;11.75;;;;;;;;;;5035895;28;20033;-73
2021/08/18 10:06:31;;;;;;;15.95;11.55;;;;;;;;;;5035597;28;20117;-75
2021/08/18 10:08:57;;;;;;;14.75;13.23;;;;;;;;;;5044315;28;20017;-74
2021/08/18 10:11:24;;;;;;;14.75;13.25;;;;;;;;;;5055654;28;20060;-73
2021/08/18 10:13:51;;;;;;;15.05;11.55;;;;;;;;;;5055897;28;20104;-73
2021/08/18 10:16:17;;;;;;;15.98;12.27;;;;;;;;;;5054975;28;20131;-73
2021/08/18 10:18:48;;;;;;;13.55;10.77;;;;;;;;;;5055856;28;20134;-74
2021/08/18 10:21:18;;;;;;;18.33;11.85;;;;;;;;;;5047505;28;20377;-74
2021/08/18 10:23:46;;;;;;;13.20;11.05;;;;;;;;;;5051104;28;20028;-74
2021/08/18 10:26:31;;;;;;;15.88;11.52;;;;;;;;;;5045063;28;20104;-74
2021/08/18 10:29:09;;;;;;;14.00;11.25;;;;;;;;;;5035151;28;20025;-74
2021/08/18 10:31:45;;;;;;;20.73;14.82;;;;;;;;;;5038374;28;20108;-75
2021/08/18 10:34:11;;;;;;;15.48;12.57;;;;;;;;;;5048304;28;20028;-74
2021/08/18 10:36:48;;;;;;;16.08;12.40;;;;;;;;;;5044077;28;20038;-74
2021/08/18 10:39:26;;;;;;;12.82;10.43;;;;;;;;;;5039839;28;20033;-74
2021/08/18 10:41:59;;;;;;;14.50;11.70;;;;;;;;;;5044697;28;20108;-76
2021/08/18 10:44:34;;;;;;;15.57;11.57;;;;;;;;;;5042515;28;20044;-75
2021/08/18 10:47:13;;;;;;;15.48;13.13;;;;;;;;;;5042841;28;20566;-77
2021/08/18 10:49:39;;;;;;;13.13;11.63;;;;;;;;;;5043812;28;20056;-76
2021/08/18 10:52:05;;;;;;;14.75;11.95;;;;;;;;;;5046412;28;20037;-77
2021/08/18 10:54:31;;;;;;;13.57;12.15;;;;;;;;;;5047672;28;20190;-75
2021/08/18 10:57:04;;;;;;;14.38;11.52;;;;;;;;;;5047278;28;20402;-74
2021/08/18 10:59:36;;;;;;;13.10;11.13;;;;;;;;;;5041967;28;20087;-76
2021/08/18 11:02:02;;;;;;;13.93;11.60;;;;;;;;;;5042820;28;20521;-76
2021/08/18 11:04:47;;;;;;;14.82;10.48;;;;;;;;;;5041194;28;20061;-76
2021/08/18 11:07:13;;;;;;;14.60;11.02;;;;;;;;;;5041430;28;20036;-76
2021/08/18 11:09:58;;;;;;;13.77;11.60;;;;;;;;;;5052487;28;20081;-75
2021/08/18 11:12:43;;;;;;;18.55;10.85;;;;;;;;;;5051017;28;20017;-76
2021/08/18 11:15:18;;;;;;;16.55;12.18;;;;;;;;;;5053508;28;20111;-73
2021/08/18 11:17:45;;;;;;;12.13;10.30;;;;;;;;;;5052767;28;20051;-75
2021/08/18 11:20:31;;;;;;;13.02;9.63;;;;;;;;;;5047146;28;20037;-75
2021/08/18 11:22:59;;;;;;;18.02;11.73;;;;;;;;;;5037323;28;20045;-75
2021/08/18 11:25:25;;;;;;;12.90;9.73;;;;;;;;;;5045575;28;20025;-75
2021/08/18 11:27:52;;;;;;;11.80;9.80;;;;;;;;;;5054557;28;20100;-76
2021/08/18 11:30:25;;;;;;;12.77;10.38;;;;;;;;;;5053907;28;20025;-75
2021/08/18 11:32:51;;;;;;;10.65;9.48;;;;;;;;;;5054132;28;20025;-75
2021/08/18 11:35:30;;;;;;;13.80;10.07;;;;;;;;;;5054132;28;20472;-75
2021/08/18 11:38:04;;;;;;;15.25;9.73;;;;;;;;;;5053405;28;20032;-75
2021/08/18 11:40:31;;;;;;;15.85;10.60;;;;;;;;;;5073488;28;20036;-71
2021/08/18 11:42:57;;;;;;;15.52;10.52;;;;;;;;;;5073617;28;20426;-70
2021/08/18 11:45:23;;;;;;;12.35;9.82;;;;;;;;;;5073061;28;20115;-72
2021/08/18 11:47:51;;;;;;;11.88;10.52;;;;;;;;;;5073805;28;20044;-71
2021/08/18 11:50:18;;;;;;;13.52;10.18;;;;;;;;;;5073497;28;20109;-69
2021/08/18 11:52:44;;;;;;;13.18;9.63;;;;;;;;;;5073006;28;20032;-71
2021/08/18 11:55:11;;;;;;;10.90;9.38;;;;;;;;;;5073877;28;20533;-69
2021/08/18 11:57:37;;;;;;;12.75;9.68;;;;;;;;;;5073288;28;20502;-70
2021/08/18 12:00:05;;;;;;;10.65;9.55;;;;;;;;;;5072849;28;20567;-70
2021/08/18 12:02:35;;;;;;;10.93;9.63;;;;;;;;;;5072344;28;20082;-70
2021/08/18 12:05:03;;;;;;;11.70;10.50;;;;;;;;;;5072849;28;20028;-71
2021/08/18 12:07:31;;;;;;;12.02;10.35;;;;;;;;;;5080627;28;20111;-70
2021/08/18 12:10:16;;;;;;;14.40;9.63;;;;;;;;;;5077382;28;20039;-76
2021/08/18 12:12:42;;;;;;;9.68;8.60;;;;;;;;;;5073225;28;20025;-75
2021/08/18 12:15:10;;;;;;;12.40;9.75;;;;;;;;;;5071094;28;20032;-76
2021/08/18 12:17:44;;;;;;;12.38;8.90;;;;;;;;;;5065258;28;20093;-76
2021/08/18 12:20:33;;;;;;;11.02;8.50;;;;;;;;;;5080544;28;20702;-75
2021/08/18 12:23:00;;;;;;;10.07;8.93;;;;;;;;;;5091358;28;20059;-76
2021/08/18 12:25:30;;;;;;;12.32;9.43;;;;;;;;;;5093187;28;20035;-77
2021/08/18 12:28:11;;;;;;;10.57;8.98;;;;;;;;;;5092969;28;20024;-75
2021/08/18 12:30:56;;;;;;;12.60;8.73;;;;;;;;;;5092769;28;20027;-76
2021/08/18 12:33:23;;;;;;;13.77;8.75;;;;;;;;;;5093171;28;20485;-75
2021/08/18 12:36:11;;;;;;;12.27;9.55;;;;;;;;;;5091980;28;20039;-75
2021/08/18 12:38:38;;;;;;;11.00;8.95;;;;;;;;;;5092583;28;20043;-76
2021/08/18 12:41:04;;;;;;;11.90;8.32;;;;;;;;;;5091982;28;20035;-77
2021/08/18 12:43:31;;;;;;;10.57;8.60;;;;;;;;;;5092542;28;20020;-76
2021/08/18 12:45:57;;;;;;;9.95;7.95;;;;;;;;;;5092460;28;20417;-77
2021/08/18 12:48:24;;;;;;;9.05;7.97;;;;;;;;;;5077335;28;20495;-76
2021/08/18 12:50:52;;;;;;;11.98;9.50;;;;;;;;;;5071023;28;20361;-76
2021/08/18 12:53:18;;;;;;;12.48;9.45;;;;;;;;;;5071209;28;20033;-76
2021/08/18 12:55:45;;;;;;;9.32;7.95;;;;;;;;;;5072090;28;20070;-76
2021/08/18 12:58:30;;;;;;;9.25;8.32;;;;;;;;;;5071214;28;20484;-76
2021/08/18 13:00:57;;;;;;;9.93;8.75;;;;;;;;;;5070951;28;20142;-76
2021/08/18 13:03:23;;;;;;;9.90;8.30;;;;;;;;;;5071724;28;20089;-78
2021/08/18 13:05:50;;;;;;;9.02;8.10;;;;;;;;;;5071914;28;20028;-77
2021/08/18 13:08:16;;;;;;;10.80;8.52;;;;;;;;;;5071583;28;20472;-75
2021/08/18 13:10:43;;;;;;;9.30;8.27;;;;;;;;;;5071566;28;20020;-76
2021/08/18 13:13:09;;;;;;;11.05;7.63;;;;;;;;;;5071238;28;20051;-77
2021/08/18 13:15:35;;;;;;;14.15;8.88;;;;;;;;;;5071248;28;20056;-76
2021/08/18 13:18:01;;;;;;;13.15;8.82;;;;;;;;;;5071304;28;20039;-75
2021/08/18 13:20:27;;;;;;;9.63;8.18;;;;;;;;;;5071800;28;20041;-74
2021/08/18 13:22:53;;;;;;;12.35;9.70;;;;;;;;;;5053823;28;20500;-75
2021/08/18 13:25:20;;;;;;;10.40;7.50;;;;;;;;;;5069252;28;20028;-80
2021/08/18 13:27:46;;;;;;;10.38;7.70;;;;;;;;;;5073082;28;20048;-75
2021/08/18 13:30:12;;;;;;;11.68;8.65;;;;;;;;;;5053840;28;20025;-76
2021/08/18 13:32:38;;;;;;;8.52;7.63;;;;;;;;;;5071732;28;20121;-68
2021/08/18 13:35:05;;;;;;;11.70;7.85;;;;;;;;;;5071261;28;20155;-68
2021/08/18 13:37:31;;;;;;;12.95;7.60;;;;;;;;;;5072055;28;20040;-73
2021/08/18 13:39:57;;;;;;;14.70;9.35;;;;;;;;;;5071971;28;20418;-75
2021/08/18 13:42:23;;;;;;;11.52;7.20;;;;;;;;;;5071981;28;20481;-75
2021/08/18 13:44:49;;;;;;;9.85;7.32;;;;;;;;;;5072440;28;20040;-75
2021/08/18 13:47:15;;;;;;;10.95;7.47;;;;;;;;;;5071640;28;20094;-75
2021/08/18 13:49:41;;;;;;;9.93;7.43;;;;;;;;;;5071879;28;20144;-75
2021/08/18 13:52:08;;;;;;;8.60;7.43;;;;;;;;;;5072441;28;20028;-76
2021/08/18 13:54:34;;;;;;;9.30;7.25;;;;;;;;;;5071900;28;20036;-75
2021/08/18 13:57:00;;;;;;;9.55;7.43;;;;;;;;;;5071461;28;20033;-76
2021/08/18 13:59:26;;;;;;;9.50;7.95;;;;;;;;;;5071855;28;20028;-74
2021/08/18 14:01:52;;;;;;;8.63;7.72;;;;;;;;;;5072113;28;20506;-74
2021/08/18 14:04:18;;;;;;;9.20;7.43;;;;;;;;;;5071150;28;20020;-75
2021/08/18 14:06:45;;;;;;;13.38;8.98;;;;;;;;;;5072121;28;20079;-75
2021/08/18 14:09:11;;;;;;;11.15;8.25;;;;;;;;;;5071773;28;20483;-74
2021/08/18 14:11:39;;;;;;;10.02;7.90;;;;;;;;;;5071416;28;20091;-74
2021/08/18 14:14:05;;;;;;;17.52;12.00;;;;;;;;;;5071870;28;20037;-76
2021/08/18 14:16:31;;;;;;;12.05;10.57;;;;;;;;;;5071693;28;20071;-77
2021/08/18 14:19:00;;;;;;;14.65;13.10;;;;;;;;;;5071678;28;20491;-77
2021/08/18 14:21:26;;;;;;;17.65;14.45;;;;;;;;;;5071898;28;20506;-77
2021/08/18 14:23:52;;;;;;;16.95;15.18;;;;;;;;;;5072022;28;20106;-78
2021/08/18 14:26:22;;;;;;;17.73;15.80;;;;;;;;;;5072110;28;20040;-77
2021/08/18 14:28:48;;;;;;;25.42;22.85;;;;;;;;;;5075809;28;20032;-74
2021/08/18 14:31:14;;;;;;;29.17;26.15;;;;;;;;;;5075480;28;20027;-76
2021/08/18 14:33:41;;;;;;;35.15;31.75;;;;;;;;;;5075093;28;20033;-73
2021/08/18 14:36:07;;;;;;;29.55;26.50;;;;;;;;;;5075510;28;20032;-72